createdAt,value
2022-10-13T00:00:51.070Z,9.57
2022-10-13T00:03:18.232Z,9.60
2022-10-13T00:05:48.113Z,9.60
2022-10-13T00:08:19.357Z,9.59
2022-10-13T00:10:48.868Z,9.62
2022-10-13T00:13:16.653Z,9.57
2022-10-13T00:15:45.340Z,9.60
2022-10-13T00:18:12.994Z,9.58
2022-10-13T00:20:48.174Z,9.60
2022-10-13T00:23:16.395Z,9.61
2022-10-13T00:25:44.955Z,9.65
2022-10-13T00:28:12.878Z,9.59
2022-10-13T00:30:40.497Z,9.68
2022-10-13T00:33:09.355Z,9.67
2022-10-13T00:35:44.271Z,9.71
2022-10-13T00:38:12.180Z,9.72
2022-10-13T00:40:48.235Z,9.73
2022-10-13T00:43:26.906Z,9.74
2022-10-13T00:45:55.234Z,9.75
2022-10-13T00:48:26.634Z,9.73
2022-10-13T00:50:54.141Z,9.73
2022-10-13T00:53:24.629Z,9.74
2022-10-13T00:55:54.298Z,9.73
2022-10-13T00:58:24.478Z,9.74
2022-10-13T01:00:53.453Z,9.74
2022-10-13T01:03:21.244Z,9.75
2022-10-13T01:05:48.836Z,9.78
2022-10-13T01:08:17.885Z,9.79
2022-10-13T01:11:17.115Z,9.84
2022-10-13T01:13:56.437Z,9.84
2022-10-13T01:16:30.764Z,9.86
2022-10-13T01:19:16.190Z,9.87
2022-10-13T01:22:14.205Z,9.91
2022-10-13T01:25:18.718Z,9.94
2022-10-13T01:28:04.349Z,9.97
2022-10-13T01:30:37.306Z,10.01
2022-10-13T01:33:25.141Z,10.03
2022-10-13T01:36:04.053Z,10.06
2022-10-13T01:38:45.795Z,10.08
2022-10-13T01:41:18.771Z,10.10
2022-10-13T01:44:03.030Z,10.12
2022-10-13T01:46:31.803Z,10.16
2022-10-13T01:49:01.860Z,10.10
2022-10-13T01:51:31.209Z,10.20
2022-10-13T01:53:58.256Z,10.16
2022-10-13T01:56:25.375Z,10.24
2022-10-13T01:58:54.477Z,10.24
2022-10-13T02:01:47.535Z,10.26
2022-10-13T02:04:34.167Z,10.28
2022-10-13T02:07:35.799Z,10.29
2022-10-13T02:10:12.964Z,10.30
2022-10-13T02:12:49.405Z,10.32
2022-10-13T02:15:21.615Z,10.32
2022-10-13T02:17:50.376Z,10.32
2022-10-13T02:20:20.032Z,10.29
2022-10-13T02:22:52.446Z,10.30
2022-10-13T02:25:19.427Z,10.30
2022-10-13T02:27:46.592Z,10.28
2022-10-13T02:30:21.895Z,10.30
2022-10-13T02:32:49.017Z,10.30
2022-10-13T02:35:16.040Z,10.29
2022-10-13T02:37:43.282Z,10.30
2022-10-13T02:40:10.876Z,10.34
2022-10-13T02:42:37.989Z,10.34
2022-10-13T02:45:05.785Z,10.36
2022-10-13T02:47:32.822Z,10.37
2022-10-13T02:49:59.810Z,10.39
2022-10-13T02:52:26.808Z,10.40
2022-10-13T02:54:53.849Z,10.38
2022-10-13T02:57:20.882Z,10.40
2022-10-13T02:59:48.101Z,10.38
2022-10-13T03:02:15.458Z,10.35
2022-10-13T03:04:42.477Z,10.40
2022-10-13T03:07:09.684Z,10.40
2022-10-13T03:09:36.838Z,10.41
2022-10-13T03:12:04.104Z,10.41
2022-10-13T03:14:31.125Z,10.41
2022-10-13T03:16:58.540Z,10.43
2022-10-13T03:19:26.069Z,10.38
2022-10-13T03:21:53.118Z,10.45
2022-10-13T03:24:20.144Z,10.47
2022-10-13T03:26:47.143Z,10.45
2022-10-13T03:29:15.490Z,10.48
2022-10-13T03:31:42.598Z,10.48
2022-10-13T03:34:11.134Z,10.45
2022-10-13T03:36:38.573Z,10.49
2022-10-13T03:39:06.592Z,10.50
2022-10-13T03:41:33.830Z,10.49
2022-10-13T03:44:01.649Z,10.47
2022-10-13T03:46:30.036Z,10.45
2022-10-13T03:48:57.508Z,10.43
2022-10-13T03:51:25.249Z,10.37
2022-10-13T03:53:52.769Z,10.40
2022-10-13T03:56:22.562Z,10.39
2022-10-13T03:58:55.187Z,10.37
2022-10-13T04:01:24.115Z,10.33
2022-10-13T04:03:52.802Z,10.39
2022-10-13T04:06:19.946Z,10.40
2022-10-13T04:08:46.967Z,10.43
2022-10-13T04:11:15.828Z,10.36
2022-10-13T04:13:43.830Z,10.44
2022-10-13T04:16:20.897Z,10.44
2022-10-13T04:18:56.274Z,10.42
2022-10-13T04:21:24.289Z,10.42
2022-10-13T04:23:51.355Z,10.43
2022-10-13T04:26:21.938Z,10.38
2022-10-13T04:28:50.555Z,10.40
2022-10-13T04:31:17.827Z,10.42
2022-10-13T04:33:45.710Z,10.47
2022-10-13T04:36:14.657Z,10.46
2022-10-13T04:38:42.634Z,10.46
2022-10-13T04:41:11.234Z,10.41
2022-10-13T04:43:38.279Z,10.47
2022-10-13T04:46:08.719Z,10.48
2022-10-13T04:48:35.855Z,10.46
2022-10-13T04:51:05.949Z,10.47
2022-10-13T04:53:33.358Z,10.45
2022-10-13T04:56:02.443Z,10.38
2022-10-13T04:58:29.498Z,10.43
2022-10-13T05:00:58.017Z,10.43
2022-10-13T05:03:26.938Z,10.42
2022-10-13T05:05:54.140Z,10.43
2022-10-13T05:08:21.608Z,10.44
2022-10-13T05:10:57.602Z,10.48
2022-10-13T05:13:25.834Z,10.43
2022-10-13T05:15:52.858Z,10.47
2022-10-13T05:18:19.901Z,10.50
2022-10-13T05:20:47.366Z,10.49
2022-10-13T05:23:16.141Z,10.53
2022-10-13T05:25:43.160Z,10.52
2022-10-13T05:28:10.207Z,10.58
2022-10-13T05:30:37.191Z,10.59
2022-10-13T05:33:04.198Z,10.55
2022-10-13T05:35:31.247Z,10.64
2022-10-13T05:37:58.276Z,10.70
2022-10-13T05:40:25.979Z,10.71
2022-10-13T05:42:53.516Z,10.75
2022-10-13T05:45:21.935Z,10.74
2022-10-13T05:47:48.949Z,10.73
2022-10-13T05:50:15.953Z,10.74
2022-10-13T05:52:43.441Z,10.75
2022-10-13T05:55:13.142Z,10.80
2022-10-13T05:57:43.983Z,10.79
2022-10-13T06:00:15.230Z,10.80
2022-10-13T06:02:58.908Z,10.81
2022-10-13T06:05:32.804Z,10.84
2022-10-13T06:07:59.937Z,10.84
2022-10-13T06:10:27.100Z,10.85
2022-10-13T06:12:56.833Z,10.80
2022-10-13T06:15:27.961Z,10.81
2022-10-13T06:17:55.814Z,10.85
2022-10-13T06:20:23.044Z,10.89
2022-10-13T06:22:50.970Z,10.88
2022-10-13T06:25:18.012Z,10.91
2022-10-13T06:27:45.053Z,10.93
2022-10-13T06:30:15.240Z,10.97
2022-10-13T06:32:43.057Z,10.95
2022-10-13T06:35:10.069Z,10.95
2022-10-13T06:37:37.061Z,10.95
2022-10-13T06:40:05.468Z,10.98
2022-10-13T06:42:34.795Z,10.96
2022-10-13T06:45:01.929Z,11.01
2022-10-13T06:47:28.922Z,11.06
2022-10-13T06:49:56.009Z,11.09
2022-10-13T06:52:23.194Z,11.05
2022-10-13T06:54:50.264Z,11.07
2022-10-13T06:57:17.353Z,11.03
2022-10-13T06:59:44.453Z,11.09
2022-10-13T07:02:11.786Z,11.11
2022-10-13T07:04:39.166Z,11.14
2022-10-13T07:07:06.182Z,11.22
2022-10-13T07:09:33.221Z,11.27
2022-10-13T07:12:00.253Z,11.24
2022-10-13T07:14:28.051Z,11.30
2022-10-13T07:16:55.228Z,11.28
2022-10-13T07:19:22.237Z,11.29
2022-10-13T07:21:49.257Z,11.27
2022-10-13T07:24:16.352Z,11.30
2022-10-13T07:26:43.355Z,11.31
2022-10-13T07:29:10.402Z,11.32
2022-10-13T07:31:37.467Z,11.36
2022-10-13T07:34:05.521Z,11.40
2022-10-13T07:36:33.520Z,11.46
2022-10-13T07:39:01.366Z,11.48
2022-10-13T07:41:29.192Z,11.51
2022-10-13T07:43:57.023Z,11.51
2022-10-13T07:46:25.154Z,11.57
2022-10-13T07:48:54.261Z,11.59
2022-10-13T07:51:22.429Z,11.61
2022-10-13T07:53:49.617Z,11.57
2022-10-13T07:56:17.002Z,11.60
2022-10-13T07:58:46.762Z,11.69
2022-10-13T08:01:14.991Z,11.72
2022-10-13T08:03:47.190Z,11.77
2022-10-13T08:06:17.276Z,11.82
2022-10-13T08:08:44.286Z,11.84
2022-10-13T08:11:16.534Z,11.93
2022-10-13T08:13:49.452Z,11.95
2022-10-13T08:16:17.167Z,12.01
2022-10-13T08:18:44.293Z,12.08
2022-10-13T08:24:02.093Z,12.26
2022-10-13T08:26:29.521Z,12.30
2022-10-13T08:31:46.265Z,12.55
2022-10-13T08:34:13.634Z,12.62
2022-10-13T08:36:40.722Z,12.69
2022-10-13T08:39:08.609Z,12.70
2022-10-13T08:41:43.747Z,12.79
2022-10-13T08:47:31.718Z,12.87
2022-10-13T08:50:03.891Z,12.94
2022-10-13T08:52:47.268Z,13.08
2022-10-13T08:55:24.069Z,13.16
2022-10-13T08:57:51.376Z,13.20
2022-10-13T09:00:18.554Z,13.27
2022-10-13T09:02:50.889Z,13.33
2022-10-13T09:05:41.915Z,13.33
2022-10-13T09:08:19.424Z,13.33
2022-10-13T09:10:51.308Z,13.30
2022-10-13T09:13:19.823Z,13.24
2022-10-13T09:15:50.428Z,13.23
2022-10-13T09:18:17.580Z,13.25
2022-10-13T09:20:44.578Z,13.25
2022-10-13T09:23:14.266Z,13.19
2022-10-13T09:25:48.335Z,13.16
2022-10-13T09:28:30.634Z,13.14
2022-10-13T09:31:19.293Z,13.17
2022-10-13T09:33:48.542Z,13.08
2022-10-13T09:36:16.249Z,13.13
2022-10-13T09:39:05.019Z,13.09
2022-10-13T09:41:33.588Z,13.04
2022-10-13T09:44:09.372Z,13.03
2022-10-13T09:46:38.216Z,12.98
2022-10-13T09:49:28.039Z,12.94
2022-10-13T09:52:01.701Z,12.93
2022-10-13T09:54:40.881Z,13.01
2022-10-13T09:57:43.869Z,13.09
2022-10-13T10:00:24.224Z,13.25
2022-10-13T10:03:10.761Z,13.40
2022-10-13T10:05:43.483Z,13.54
2022-10-13T10:08:58.437Z,13.65
2022-10-13T10:11:48.510Z,13.68
2022-10-13T10:14:28.731Z,13.76
2022-10-13T10:17:13.303Z,13.83
2022-10-13T10:20:01.734Z,13.88
2022-10-13T10:22:40.454Z,13.87
2022-10-13T10:25:19.441Z,13.95
2022-10-13T10:28:01.798Z,14.00
2022-10-13T10:30:31.259Z,14.08
2022-10-13T10:33:13.118Z,14.11
2022-10-13T10:36:20.254Z,14.15
2022-10-13T10:39:09.326Z,14.28
2022-10-13T10:41:39.060Z,14.34
2022-10-13T10:44:10.095Z,14.36
2022-10-13T10:46:42.356Z,14.43
2022-10-13T10:49:32.380Z,14.56
2022-10-13T10:52:01.738Z,14.62
2022-10-13T10:54:49.990Z,14.76
2022-10-13T10:57:29.931Z,14.79
2022-10-13T11:00:04.930Z,14.80
2022-10-13T11:02:46.877Z,14.85
2022-10-13T11:05:14.977Z,14.88
2022-10-13T11:07:43.251Z,14.92
2022-10-13T11:10:13.451Z,14.98
2022-10-13T11:12:52.511Z,15.03
2022-10-13T11:15:31.051Z,15.10
2022-10-13T11:18:01.005Z,15.20
2022-10-13T11:20:33.696Z,15.27
2022-10-13T11:23:00.657Z,15.30
2022-10-13T11:25:47.187Z,15.24
2022-10-13T11:28:23.103Z,15.22
2022-10-13T11:30:55.521Z,15.21
2022-10-13T11:33:38.926Z,15.15
2022-10-13T11:36:29.424Z,15.16
2022-10-13T11:39:28.345Z,15.10
2022-10-13T11:42:21.696Z,15.01
2022-10-13T11:44:58.133Z,14.97
2022-10-13T11:47:43.697Z,14.95
2022-10-13T11:50:18.252Z,14.84
2022-10-13T11:53:14.494Z,14.80
2022-10-13T11:55:47.945Z,14.72
2022-10-13T11:58:24.316Z,14.57
2022-10-13T12:01:08.735Z,14.52
2022-10-13T12:03:42.332Z,14.50
2022-10-13T12:06:33.157Z,14.46
2022-10-13T12:09:15.107Z,14.41
2022-10-13T12:11:43.642Z,14.37
2022-10-13T12:14:30.832Z,14.37
2022-10-13T12:17:00.360Z,14.48
2022-10-13T12:19:30.956Z,14.47
2022-10-13T12:22:00.637Z,14.43
2022-10-13T12:24:30.246Z,14.39
2022-10-13T12:27:10.242Z,14.39
2022-10-13T12:29:40.515Z,14.39
2022-10-13T12:32:28.949Z,14.38
2022-10-13T12:34:58.252Z,14.30
2022-10-13T12:37:30.635Z,14.28
2022-10-13T12:40:01.266Z,14.19
2022-10-13T12:42:32.844Z,14.31
2022-10-13T12:45:01.180Z,14.41
2022-10-13T12:47:49.618Z,14.47
2022-10-13T12:50:25.381Z,14.47
2022-10-13T12:53:08.720Z,14.43
2022-10-13T12:55:45.245Z,14.41
2022-10-13T12:58:22.697Z,14.49
2022-10-13T13:01:20.833Z,14.49
2022-10-13T13:03:54.480Z,14.39
2022-10-13T13:06:29.293Z,14.39
2022-10-13T13:09:21.776Z,14.32
2022-10-13T13:12:02.263Z,14.19
2022-10-13T13:14:38.370Z,14.11
2022-10-13T13:17:17.355Z,14.05
2022-10-13T13:19:49.743Z,13.95
2022-10-13T13:22:17.740Z,13.91
2022-10-13T13:24:45.215Z,13.86
2022-10-13T13:27:20.936Z,13.84
2022-10-13T13:29:48.437Z,13.79
2022-10-13T13:32:20.122Z,13.76
2022-10-13T13:34:48.491Z,13.69
2022-10-13T13:37:37.281Z,13.72
2022-10-13T13:40:06.965Z,13.76
2022-10-13T13:42:34.130Z,13.68
2022-10-13T13:45:01.175Z,13.73
2022-10-13T13:47:28.921Z,13.69
2022-10-13T13:49:57.305Z,13.78
2022-10-13T13:52:28.075Z,13.88
2022-10-13T13:54:58.148Z,13.95
2022-10-13T13:57:30.953Z,13.92
2022-10-13T14:00:00.807Z,14.14
2022-10-13T14:02:30.594Z,14.19
2022-10-13T14:04:58.429Z,14.29
2022-10-13T14:07:25.608Z,14.20
2022-10-13T14:09:53.767Z,14.21
2022-10-13T14:12:22.745Z,14.18
2022-10-13T14:14:49.960Z,14.17
2022-10-13T14:17:17.054Z,14.25
2022-10-13T14:19:44.062Z,14.32
2022-10-13T14:22:11.061Z,14.37
2022-10-13T14:24:38.118Z,14.41
2022-10-13T14:27:05.173Z,14.46
2022-10-13T14:29:32.241Z,14.47
2022-10-13T14:31:59.376Z,14.42
2022-10-13T14:34:26.865Z,14.35
2022-10-13T14:36:54.458Z,14.30
2022-10-13T14:39:21.706Z,14.27
2022-10-13T14:41:48.725Z,14.24
2022-10-13T14:44:15.803Z,14.19
2022-10-13T14:46:43.258Z,14.16
2022-10-13T14:49:10.990Z,14.14
2022-10-13T14:51:38.552Z,14.16
2022-10-13T14:54:06.860Z,14.13
2022-10-13T14:56:34.588Z,14.08
2022-10-13T14:59:04.222Z,14.06
2022-10-13T15:01:33.363Z,14.00
2022-10-13T15:04:01.578Z,14.01
2022-10-13T15:06:29.093Z,14.04
2022-10-13T15:08:57.099Z,13.99
2022-10-13T15:11:25.704Z,13.97
2022-10-13T15:13:53.027Z,13.98
2022-10-13T15:16:22.615Z,13.99
2022-10-13T15:18:49.701Z,13.96
2022-10-13T15:21:17.338Z,13.91
2022-10-13T15:23:45.082Z,13.96
2022-10-13T15:26:14.537Z,13.97
2022-10-13T15:28:45.137Z,13.92
2022-10-13T15:31:13.529Z,13.93
2022-10-13T15:33:51.967Z,13.96
2022-10-13T15:36:20.166Z,13.89
2022-10-13T15:38:47.239Z,13.87
2022-10-13T15:41:14.643Z,13.82
2022-10-13T15:43:42.328Z,13.81
2022-10-13T15:46:13.276Z,13.74
2022-10-13T15:48:40.280Z,13.72
2022-10-13T15:51:19.373Z,13.68
2022-10-13T15:53:47.134Z,13.59
2022-10-13T15:56:14.663Z,13.61
2022-10-13T15:58:44.239Z,13.57
2022-10-13T16:01:12.536Z,13.54
2022-10-13T16:03:39.820Z,13.53
2022-10-13T16:06:09.222Z,13.48
2022-10-13T16:08:37.526Z,13.50
2022-10-13T16:11:09.415Z,13.52
2022-10-13T16:13:36.568Z,13.53
2022-10-13T16:16:04.020Z,13.49
2022-10-13T16:18:33.745Z,13.45
2022-10-13T16:21:07.586Z,13.42
2022-10-13T16:23:34.619Z,13.44
2022-10-13T16:26:05.783Z,13.43
2022-10-13T16:28:48.401Z,13.36
2022-10-13T16:31:16.994Z,13.43
2022-10-13T16:33:45.438Z,13.43
2022-10-13T16:36:17.811Z,13.41
2022-10-13T16:38:46.104Z,13.33
2022-10-13T16:41:18.184Z,13.35
2022-10-13T16:43:46.598Z,13.34
2022-10-13T16:46:16.020Z,13.23
2022-10-13T16:48:44.404Z,13.34
2022-10-13T16:51:20.156Z,13.30
2022-10-13T16:53:49.061Z,13.29
2022-10-13T16:56:21.145Z,13.32
2022-10-13T16:58:59.180Z,13.32
2022-10-13T17:01:27.128Z,13.30
2022-10-13T17:03:54.439Z,13.20
2022-10-13T17:06:25.910Z,13.27
2022-10-13T17:08:52.928Z,13.26
2022-10-13T17:11:22.720Z,13.20
2022-10-13T17:13:50.542Z,13.23
2022-10-13T17:16:18.510Z,13.21
2022-10-13T17:18:46.395Z,13.20
2022-10-13T17:21:15.804Z,13.19
2022-10-13T17:23:48.399Z,13.19
2022-10-13T17:26:16.956Z,13.19
2022-10-13T17:28:44.574Z,13.17
2022-10-13T17:31:17.529Z,13.12
2022-10-13T17:33:45.393Z,13.11
2022-10-13T17:36:16.210Z,13.16
2022-10-13T17:38:44.535Z,13.17
2022-10-13T17:41:12.403Z,13.15
2022-10-13T17:43:40.337Z,13.12
2022-10-13T17:46:35.154Z,13.14
2022-10-13T17:49:00.757Z,13.10
2022-10-13T17:51:28.494Z,13.10
2022-10-13T17:53:59.795Z,13.08
2022-10-13T17:56:28.217Z,13.09
2022-10-13T17:58:57.096Z,13.10
2022-10-13T18:01:28.289Z,13.12
2022-10-13T18:04:01.247Z,13.12
2022-10-13T18:06:36.730Z,13.13
2022-10-13T18:09:07.640Z,13.08
2022-10-13T18:11:36.113Z,12.91
2022-10-13T18:14:03.611Z,12.85
2022-10-13T18:16:30.752Z,12.69
2022-10-13T18:19:01.320Z,12.61
2022-10-13T18:21:29.295Z,12.60
2022-10-13T18:23:59.688Z,12.52
2022-10-13T18:26:31.692Z,12.50
2022-10-13T18:28:58.779Z,12.48
2022-10-13T18:31:31.163Z,12.48
2022-10-13T18:34:08.764Z,12.41
2022-10-13T18:36:47.781Z,12.38
2022-10-13T18:39:21.390Z,12.33
2022-10-13T18:41:50.024Z,12.28
2022-10-13T18:44:17.576Z,12.24
2022-10-13T18:46:44.960Z,12.20
2022-10-13T18:49:14.486Z,12.05
2022-10-13T18:51:42.110Z,12.08
2022-10-13T18:54:09.697Z,11.93
2022-10-13T18:56:36.912Z,11.92
2022-10-13T18:59:06.567Z,11.91
2022-10-13T19:01:35.345Z,11.93
2022-10-13T19:04:03.084Z,11.86
2022-10-13T19:06:32.152Z,11.84
2022-10-13T19:09:04.906Z,11.84
2022-10-13T19:11:33.055Z,11.84
2022-10-13T19:14:00.871Z,11.79
2022-10-13T19:16:30.723Z,11.84
2022-10-13T19:18:58.618Z,11.83
2022-10-13T19:21:26.325Z,11.83
2022-10-13T19:23:54.482Z,11.83
2022-10-13T19:26:28.292Z,11.72
2022-10-13T19:28:56.532Z,11.63
2022-10-13T19:31:26.475Z,11.63
2022-10-13T19:33:55.261Z,11.60
2022-10-13T19:36:25.808Z,11.62
2022-10-13T19:38:54.474Z,11.57
2022-10-13T19:41:22.152Z,11.50
2022-10-13T19:43:50.249Z,11.46
2022-10-13T19:46:17.771Z,11.40
2022-10-13T19:48:45.083Z,11.44
2022-10-13T19:51:13.524Z,11.37
2022-10-13T19:53:41.177Z,11.37
2022-10-13T19:56:09.329Z,11.30
2022-10-13T19:58:36.740Z,11.29
2022-10-13T20:01:06.720Z,11.24
2022-10-13T20:03:34.183Z,11.14
2022-10-13T20:06:05.565Z,11.12
2022-10-13T20:08:32.814Z,11.10
2022-10-13T20:11:06.567Z,11.02
2022-10-13T20:13:33.907Z,11.00
2022-10-13T20:16:08.787Z,10.95
2022-10-13T20:18:36.143Z,10.89
2022-10-13T20:21:08.899Z,10.85
2022-10-13T20:23:36.225Z,10.81
2022-10-13T20:26:05.476Z,10.80
2022-10-13T20:28:32.767Z,10.77
2022-10-13T20:31:03.033Z,10.75
2022-10-13T20:33:31.210Z,10.71
2022-10-13T20:36:00.336Z,10.63
2022-10-13T20:38:29.494Z,10.61
2022-10-13T20:41:18.056Z,10.60
2022-10-13T20:43:46.539Z,10.52
2022-10-13T20:46:16.034Z,10.54
2022-10-13T20:51:31.171Z,10.45
2022-10-13T20:53:58.664Z,10.35
2022-10-13T20:56:29.664Z,10.24
2022-10-13T20:58:57.583Z,10.19
2022-10-13T21:01:24.637Z,10.16
2022-10-13T21:03:55.597Z,10.13
2022-10-13T21:06:24.564Z,10.12
2022-10-13T21:08:52.400Z,10.11
2022-10-13T21:11:21.787Z,10.04
2022-10-13T21:13:49.831Z,10.01
2022-10-13T21:16:28.305Z,10.01
2022-10-13T21:18:57.235Z,10.00
2022-10-13T21:21:27.221Z,9.91
2022-10-13T21:24:04.123Z,9.95
2022-10-13T21:26:32.936Z,9.97
2022-10-13T21:29:01.483Z,9.99
2022-10-13T21:31:29.228Z,9.97
2022-10-13T21:33:59.150Z,10.01
2022-10-13T21:36:29.603Z,10.01
2022-10-13T21:38:59.784Z,10.03
2022-10-13T21:41:28.225Z,10.08
2022-10-13T21:43:56.157Z,10.09
2022-10-13T21:46:28.563Z,10.08
2022-10-13T21:49:00.321Z,10.08
2022-10-13T21:51:38.785Z,10.02
2022-10-13T21:54:12.195Z,9.97
2022-10-13T21:56:40.159Z,10.00
2022-10-13T21:59:07.868Z,9.99
2022-10-13T22:01:35.073Z,9.98
2022-10-13T22:04:02.919Z,9.95
2022-10-13T22:06:31.898Z,9.96
2022-10-13T22:09:01.724Z,9.96
2022-10-13T22:11:31.215Z,9.91
2022-10-13T22:13:59.215Z,9.90
2022-10-13T22:16:42.158Z,9.85
2022-10-13T22:19:09.278Z,9.79
2022-10-13T22:21:43.235Z,9.79
2022-10-13T22:24:16.314Z,9.82
2022-10-13T22:26:44.912Z,9.83
2022-10-13T22:29:14.698Z,9.85
2022-10-13T22:31:42.264Z,9.86
2022-10-13T22:34:10.443Z,9.87
2022-10-13T22:36:41.045Z,9.87
2022-10-13T22:39:11.045Z,9.89
2022-10-13T22:41:38.112Z,9.88
2022-10-13T22:44:05.233Z,9.90
2022-10-13T22:46:34.636Z,9.90
2022-10-13T22:49:02.193Z,9.86
2022-10-13T22:51:30.795Z,9.87
2022-10-13T22:53:58.544Z,9.85
2022-10-13T22:56:28.917Z,9.84
2022-10-13T22:58:58.329Z,9.82
2022-10-13T23:01:26.369Z,9.82
2022-10-13T23:03:55.836Z,9.80
2022-10-13T23:06:27.134Z,9.80
2022-10-13T23:08:54.815Z,9.86
2022-10-13T23:11:22.856Z,9.82
2022-10-13T23:13:50.286Z,9.86
2022-10-13T23:16:20.493Z,9.85
2022-10-13T23:18:48.057Z,9.83
2022-10-13T23:21:17.746Z,9.83
2022-10-13T23:23:45.560Z,9.80
2022-10-13T23:26:16.285Z,9.76
2022-10-13T23:28:44.411Z,9.77
2022-10-13T23:31:16.611Z,9.76
2022-10-13T23:33:44.628Z,9.72
2022-10-13T23:36:22.323Z,9.72
2022-10-13T23:38:58.042Z,9.69
2022-10-13T23:41:25.919Z,9.70
2022-10-13T23:43:52.967Z,9.68
2022-10-13T23:46:20.046Z,9.67
2022-10-13T23:48:47.651Z,9.67
2022-10-13T23:51:18.046Z,9.68
2022-10-13T23:53:46.161Z,9.68
2022-10-13T23:56:14.066Z,9.61
2022-10-13T23:58:43.198Z,9.62
